« Back
NWS Peachtree City, Ga » Text Product » AHN Terminal Aerodrome Forecast


Printer-friendly Version
Current Version              Previous Versions:   1  2  3  4  5  6  7  8  9  

Terminal Aerodrome Forecast

725
FTAK31 PAJN 241131
TAFAHN
TAF
PAHN 241131Z 2412/2512 11008G18KT P6SM -SHRA OVC012
     FM241500 11011KT P6SM -SHRA SCT010 BKN015 OVC035
     FM242000 12012G20KT P6SM -SHRA BKN020 OVC035
     FM250500 09011KT P6SM -SHRA SCT008 OVC012
      AMD LTD TO CLD VIS AND WIND=



USA.gov is the U.S. government's official web portal to all federal, state and local government web resources and services.